createdAt,value
2023-12-18T00:00:14.656Z,31.93
2023-12-18T00:02:43.083Z,31.93
2023-12-18T00:05:11.517Z,31.93
2023-12-18T00:07:41.031Z,31.96
2023-12-18T00:10:09.863Z,31.76
2023-12-18T00:12:38.155Z,32.08
2023-12-18T00:15:08.267Z,31.82
2023-12-18T00:17:36.618Z,31.94
2023-12-18T00:20:05.661Z,32.01
2023-12-18T00:22:33.692Z,31.94
2023-12-18T00:25:03.385Z,32.02
2023-12-18T00:27:31.301Z,31.81
2023-12-18T00:29:59.285Z,31.92
2023-12-18T00:32:27.217Z,31.90
2023-12-18T00:34:55.186Z,31.83
2023-12-18T00:37:23.518Z,31.77
2023-12-18T00:39:51.422Z,31.71
2023-12-18T00:42:20.686Z,31.84
2023-12-18T00:44:48.615Z,31.65
2023-12-18T00:47:16.479Z,31.88
2023-12-18T00:49:44.461Z,31.80
2023-12-18T00:52:12.442Z,31.94
2023-12-18T00:54:40.459Z,31.78
2023-12-18T00:57:08.432Z,31.69
2023-12-18T00:59:37.706Z,32.01
2023-12-18T01:02:05.949Z,31.98
2023-12-18T01:04:33.897Z,31.74
2023-12-18T01:07:01.902Z,31.86
2023-12-18T01:09:29.836Z,32.05
2023-12-18T01:11:57.729Z,32.05
2023-12-18T01:14:25.667Z,31.69
2023-12-18T01:16:55.786Z,31.85
2023-12-18T01:19:24.204Z,32.00
2023-12-18T01:21:52.266Z,31.85
2023-12-18T01:24:20.189Z,31.93
2023-12-18T01:26:48.144Z,32.16
2023-12-18T01:29:16.032Z,32.25
2023-12-18T01:31:43.946Z,32.05
2023-12-18T01:34:13.347Z,32.29
2023-12-18T01:36:41.359Z,32.32
2023-12-18T01:39:09.294Z,32.20
2023-12-18T01:41:37.179Z,32.24
2023-12-18T01:44:05.293Z,32.05
2023-12-18T01:46:37.038Z,31.96
2023-12-18T01:49:05.222Z,32.40
2023-12-18T01:51:34.576Z,32.17
2023-12-18T01:54:03.183Z,31.92
2023-12-18T01:56:32.843Z,32.07
2023-12-18T01:59:01.604Z,32.13
2023-12-18T02:01:30.401Z,32.32
2023-12-18T02:03:58.727Z,32.02
2023-12-18T02:06:27.918Z,32.26
2023-12-18T02:08:57.556Z,32.01
2023-12-18T02:11:25.682Z,32.11
2023-12-18T02:13:53.796Z,32.09
2023-12-18T02:16:23.295Z,32.05
2023-12-18T02:18:51.255Z,31.87
2023-12-18T02:21:23.454Z,31.99
2023-12-18T02:23:53.199Z,31.81
2023-12-18T02:26:22.013Z,31.96
2023-12-18T02:28:49.963Z,31.88
2023-12-18T02:31:19.398Z,31.67
2023-12-18T02:33:50.106Z,32.12
2023-12-18T02:36:18.846Z,31.86
2023-12-18T02:38:46.893Z,31.77
2023-12-18T02:41:16.195Z,32.09
2023-12-18T02:43:44.138Z,31.96
2023-12-18T02:46:12.040Z,32.29
2023-12-18T02:48:40.271Z,32.12
2023-12-18T02:51:08.488Z,32.27
2023-12-18T02:53:36.409Z,32.21
2023-12-18T02:56:04.508Z,32.25
2023-12-18T02:58:34.012Z,31.90
2023-12-18T03:01:02.076Z,32.13
2023-12-18T03:03:30.059Z,32.20
2023-12-18T03:05:57.959Z,32.22
2023-12-18T03:08:25.832Z,31.99
2023-12-18T03:10:53.701Z,32.08
2023-12-18T03:13:21.589Z,31.95
2023-12-18T03:15:50.933Z,32.05
2023-12-18T03:18:19.009Z,31.79
2023-12-18T03:20:46.951Z,32.19
2023-12-18T03:23:14.951Z,32.08
2023-12-18T03:25:42.874Z,31.76
2023-12-18T03:28:10.770Z,31.94
2023-12-18T03:30:38.729Z,31.79
2023-12-18T03:33:08.373Z,31.88
2023-12-18T03:35:36.492Z,31.65
2023-12-18T03:38:04.564Z,31.68
2023-12-18T03:40:32.436Z,31.64
2023-12-18T03:43:00.300Z,31.82
2023-12-18T03:45:28.267Z,31.73
2023-12-18T03:47:56.200Z,31.72
2023-12-18T03:50:25.477Z,31.88
2023-12-18T03:52:53.359Z,31.79
2023-12-18T03:55:21.250Z,31.59
2023-12-18T03:57:49.203Z,31.81
2023-12-18T04:00:18.632Z,31.67
2023-12-18T04:02:46.597Z,31.68
2023-12-18T04:05:14.536Z,31.77
2023-12-18T04:07:43.996Z,31.50
2023-12-18T04:10:12.707Z,31.70
2023-12-18T04:12:40.964Z,31.95
2023-12-18T04:15:10.327Z,31.79
2023-12-18T04:17:38.409Z,31.73
2023-12-18T04:20:07.715Z,31.96
2023-12-18T04:22:35.617Z,31.87
2023-12-18T04:25:05.258Z,31.83
2023-12-18T04:27:33.244Z,31.79
2023-12-18T04:30:01.162Z,31.90
2023-12-18T04:32:29.113Z,32.11
2023-12-18T04:34:56.986Z,31.86
2023-12-18T04:37:24.958Z,32.05
2023-12-18T04:39:52.894Z,31.86
2023-12-18T04:42:22.173Z,32.33
2023-12-18T04:44:50.094Z,32.14
2023-12-18T04:47:18.078Z,31.96
2023-12-18T04:49:46.035Z,31.83
2023-12-18T04:52:14.177Z,31.94
2023-12-18T04:54:42.110Z,32.03
2023-12-18T04:57:10.082Z,31.86
2023-12-18T04:59:39.354Z,31.82
2023-12-18T05:02:07.277Z,32.24
2023-12-18T05:04:35.286Z,32.15
2023-12-18T05:07:03.215Z,31.95
2023-12-18T05:09:31.182Z,32.15
2023-12-18T05:11:59.088Z,32.09
2023-12-18T05:14:27.025Z,31.88
2023-12-18T05:16:56.263Z,32.03
2023-12-18T05:19:25.530Z,31.83
2023-12-18T05:21:53.498Z,31.86
2023-12-18T05:24:21.434Z,32.05
2023-12-18T05:26:49.314Z,32.11
2023-12-18T05:29:17.251Z,31.84
2023-12-18T05:31:45.213Z,31.73
2023-12-18T05:34:14.660Z,32.02
2023-12-18T05:36:42.694Z,31.76
2023-12-18T05:39:10.629Z,31.71
2023-12-18T05:41:38.500Z,31.99
2023-12-18T05:44:06.548Z,31.99
2023-12-18T05:46:34.428Z,32.06
2023-12-18T05:49:02.436Z,31.99
2023-12-18T05:51:31.856Z,32.07
2023-12-18T05:53:59.900Z,31.92
2023-12-18T05:56:27.769Z,32.11
2023-12-18T05:58:57.082Z,32.25
2023-12-18T06:01:25.121Z,32.34
2023-12-18T06:03:53.309Z,32.38
2023-12-18T06:06:21.368Z,31.97
2023-12-18T06:08:50.663Z,32.05
2023-12-18T06:11:18.582Z,32.31
2023-12-18T06:13:47.127Z,32.16
2023-12-18T06:16:15.168Z,32.30
2023-12-18T06:18:43.788Z,32.00
2023-12-18T06:21:11.866Z,32.15
2023-12-18T06:23:39.785Z,32.12
2023-12-18T06:26:09.029Z,32.19
2023-12-18T06:28:36.969Z,32.15
2023-12-18T06:31:05.205Z,31.95
2023-12-18T06:33:33.420Z,31.77
2023-12-18T06:36:01.348Z,32.04
2023-12-18T06:38:29.807Z,31.78
2023-12-18T06:40:57.664Z,31.93
2023-12-18T06:43:26.969Z,31.87
2023-12-18T06:45:54.871Z,32.12
2023-12-18T06:48:22.940Z,31.90
2023-12-18T06:50:50.939Z,31.80
2023-12-18T06:53:18.919Z,31.73
2023-12-18T06:55:46.830Z,31.71
2023-12-18T06:58:14.746Z,31.77
2023-12-18T07:00:44.610Z,31.95
2023-12-18T07:03:12.645Z,31.77
2023-12-18T07:05:40.645Z,31.74
2023-12-18T07:08:09.095Z,32.01
2023-12-18T07:10:36.976Z,31.98
2023-12-18T07:13:05.217Z,31.90
2023-12-18T07:15:33.279Z,31.79
2023-12-18T07:18:02.778Z,31.65
2023-12-18T07:20:30.702Z,31.82
2023-12-18T07:22:58.713Z,32.09
2023-12-18T07:25:26.602Z,31.95
2023-12-18T07:27:54.521Z,32.11
2023-12-18T07:30:22.750Z,31.88
2023-12-18T07:32:50.815Z,31.94
2023-12-18T07:35:20.483Z,31.78
2023-12-18T07:37:48.424Z,31.86
2023-12-18T07:40:16.537Z,31.63
2023-12-18T07:42:44.770Z,31.78
2023-12-18T07:45:13.458Z,31.79
2023-12-18T07:47:42.468Z,31.62
2023-12-18T07:50:11.321Z,31.55
2023-12-18T07:52:41.002Z,31.71
2023-12-18T07:55:10.250Z,31.52
2023-12-18T07:57:38.281Z,31.72
2023-12-18T08:00:08.480Z,31.53
2023-12-18T08:02:39.839Z,31.48
2023-12-18T08:05:08.173Z,31.39
2023-12-18T08:07:36.125Z,31.48
2023-12-18T08:10:06.218Z,31.30
2023-12-18T08:12:34.799Z,31.37
2023-12-18T08:15:03.363Z,31.19
2023-12-18T08:17:31.368Z,31.19
2023-12-18T08:19:59.307Z,31.17
2023-12-18T08:22:27.176Z,31.18
2023-12-18T08:24:55.836Z,31.00
2023-12-18T08:27:25.099Z,31.10
2023-12-18T08:29:53.085Z,31.14
2023-12-18T08:32:20.938Z,30.83
2023-12-18T08:34:49.512Z,30.98
2023-12-18T08:37:17.506Z,30.93
2023-12-18T08:39:45.434Z,30.81
2023-12-18T08:42:13.354Z,30.91
2023-12-18T08:44:42.695Z,30.79
2023-12-18T08:47:10.591Z,30.86
2023-12-18T08:49:38.701Z,30.80
2023-12-18T08:52:08.820Z,30.79
2023-12-18T08:54:37.080Z,30.79
2023-12-18T08:57:05.554Z,30.69
2023-12-18T08:59:33.527Z,30.80
2023-12-18T09:02:02.846Z,30.71
2023-12-18T09:04:30.782Z,30.75
2023-12-18T09:06:59.021Z,30.82
2023-12-18T09:09:27.320Z,31.03
2023-12-18T09:11:55.381Z,30.69
2023-12-18T09:14:23.244Z,30.56
2023-12-18T09:16:51.165Z,30.67
2023-12-18T09:19:20.531Z,30.54
2023-12-18T09:21:49.954Z,30.68
2023-12-18T09:24:17.875Z,30.66
2023-12-18T09:26:45.934Z,30.64
2023-12-18T09:29:14.053Z,30.68
2023-12-18T09:31:42.326Z,30.47
2023-12-18T09:34:10.482Z,30.60
2023-12-18T09:36:39.875Z,30.54
2023-12-18T09:39:07.868Z,30.48
2023-12-18T09:41:35.778Z,30.49
2023-12-18T09:44:03.920Z,30.52
2023-12-18T09:46:32.174Z,30.39
2023-12-18T09:49:00.356Z,30.33
2023-12-18T09:51:28.449Z,30.32
2023-12-18T09:53:57.887Z,30.36
2023-12-18T09:56:26.193Z,30.19
2023-12-18T09:58:56.880Z,30.24
2023-12-18T10:01:25.539Z,30.21
2023-12-18T10:03:53.592Z,30.44
2023-12-18T10:06:22.440Z,30.81
2023-12-18T10:08:51.591Z,30.39
2023-12-18T10:11:31.295Z,30.70
2023-12-18T10:13:59.619Z,30.41
2023-12-18T10:16:27.850Z,30.36
2023-12-18T10:18:55.812Z,30.45
2023-12-18T10:21:25.526Z,30.44
2023-12-18T10:23:54.534Z,30.23
2023-12-18T10:26:23.240Z,30.63
2023-12-18T10:28:53.579Z,30.33
2023-12-18T10:31:21.848Z,30.22
2023-12-18T10:33:50.930Z,30.20
2023-12-18T10:36:19.498Z,30.39
2023-12-18T10:38:50.735Z,30.33
2023-12-18T10:41:21.748Z,30.53
2023-12-18T10:43:51.677Z,30.50
2023-12-18T10:46:22.717Z,30.51
2023-12-18T10:48:51.352Z,30.38
2023-12-18T10:51:21.874Z,30.51
2023-12-18T10:53:50.841Z,30.72
2023-12-18T10:56:22.498Z,30.65
2023-12-18T10:58:52.274Z,30.95
2023-12-18T11:01:22.333Z,31.20
2023-12-18T11:03:50.883Z,31.17
2023-12-18T11:06:20.366Z,31.20
2023-12-18T11:08:49.268Z,31.21
2023-12-18T11:11:19.519Z,31.25
2023-12-18T11:14:01.923Z,31.29
2023-12-18T11:16:42.565Z,31.18
2023-12-18T11:19:23.215Z,31.22
2023-12-18T11:21:55.401Z,31.14
2023-12-18T11:24:23.494Z,31.27
2023-12-18T11:26:53.351Z,31.15
2023-12-18T11:29:51.018Z,31.05
2023-12-18T11:32:47.244Z,31.15
2023-12-18T11:35:16.726Z,31.15
2023-12-18T11:37:47.639Z,31.18
2023-12-18T11:40:39.785Z,31.21
2023-12-18T11:43:09.456Z,31.22
2023-12-18T11:45:40.467Z,31.12
2023-12-18T11:48:15.282Z,31.20
2023-12-18T11:50:43.769Z,31.18
2023-12-18T11:53:32.525Z,31.08
2023-12-18T11:56:00.885Z,31.14
2023-12-18T11:58:29.466Z,31.13
2023-12-18T12:00:58.192Z,31.19
2023-12-18T12:03:28.964Z,30.89
2023-12-18T12:05:59.640Z,31.03
2023-12-18T12:08:27.771Z,30.99
2023-12-18T12:10:58.519Z,30.99
2023-12-18T12:13:28.012Z,30.79
2023-12-18T12:15:58.133Z,30.76
2023-12-18T12:18:29.391Z,30.69
2023-12-18T12:20:58.027Z,30.69
2023-12-18T12:23:26.704Z,30.69
2023-12-18T12:25:58.850Z,30.57
2023-12-18T12:28:29.450Z,30.89
2023-12-18T12:30:57.721Z,30.93
2023-12-18T12:33:25.869Z,30.87
2023-12-18T12:35:55.440Z,31.12
2023-12-18T12:38:23.329Z,31.29
2023-12-18T12:40:51.313Z,31.55
2023-12-18T12:43:19.182Z,31.83
2023-12-18T12:45:47.180Z,32.30
2023-12-18T12:48:16.001Z,32.96
2023-12-18T12:50:45.348Z,33.43
2023-12-18T12:53:15.288Z,33.71
2023-12-18T12:55:44.253Z,33.79
2023-12-18T12:58:13.386Z,33.66
2023-12-18T13:00:41.409Z,33.58
2023-12-18T13:03:09.857Z,33.16
2023-12-18T13:05:38.543Z,33.05
2023-12-18T13:08:06.658Z,33.13
2023-12-18T13:10:35.973Z,33.31
2023-12-18T13:13:04.115Z,32.92
2023-12-18T13:15:32.097Z,33.01
2023-12-18T13:18:00.037Z,32.91
2023-12-18T13:20:29.345Z,32.76
2023-12-18T13:22:57.992Z,32.73
2023-12-18T13:25:25.896Z,32.78
2023-12-18T13:27:55.438Z,32.78
2023-12-18T13:30:23.593Z,32.45
2023-12-18T13:32:51.657Z,32.63
2023-12-18T13:35:20.086Z,32.42
2023-12-18T13:37:48.413Z,32.29
2023-12-18T13:40:16.438Z,32.11
2023-12-18T13:42:44.376Z,32.06
2023-12-18T13:45:13.873Z,32.19
2023-12-18T13:47:42.227Z,32.34
2023-12-18T13:50:11.531Z,32.14
2023-12-18T13:52:40.005Z,32.06
2023-12-18T13:55:08.707Z,32.00
2023-12-18T13:57:43.509Z,31.99
2023-12-18T14:00:21.103Z,31.68
2023-12-18T14:02:51.019Z,31.53
2023-12-18T14:05:19.973Z,31.35
2023-12-18T14:07:48.382Z,31.36
2023-12-18T14:10:16.487Z,31.13
2023-12-18T14:12:44.698Z,31.43
2023-12-18T14:15:13.018Z,31.13
2023-12-18T14:17:42.435Z,31.13
2023-12-18T14:20:11.939Z,31.08
2023-12-18T14:22:40.029Z,31.10
2023-12-18T14:25:09.161Z,30.98
2023-12-18T14:27:37.644Z,30.82
2023-12-18T14:30:06.579Z,31.04
2023-12-18T14:32:34.681Z,30.85
2023-12-18T14:35:04.043Z,30.78
2023-12-18T14:37:31.954Z,30.88
2023-12-18T14:40:01.185Z,30.78
2023-12-18T14:42:29.335Z,30.82
2023-12-18T14:44:57.605Z,30.95
2023-12-18T14:47:25.555Z,30.94
2023-12-18T14:49:52.532Z,30.72
2023-12-18T14:52:21.805Z,30.77
2023-12-18T14:54:49.845Z,30.69
2023-12-18T14:57:17.865Z,30.55
2023-12-18T14:59:45.757Z,30.79
2023-12-18T15:02:13.738Z,30.52
2023-12-18T15:04:41.653Z,30.45
2023-12-18T15:07:09.800Z,30.65
2023-12-18T15:09:39.176Z,30.46
2023-12-18T15:12:07.924Z,30.46
2023-12-18T15:14:35.800Z,30.59
2023-12-18T15:17:06.149Z,30.27
2023-12-18T15:19:36.929Z,30.44
2023-12-18T15:22:05.786Z,30.58
2023-12-18T15:24:33.804Z,30.46
2023-12-18T15:27:03.203Z,30.59
2023-12-18T15:29:31.635Z,30.60
2023-12-18T15:31:59.561Z,30.56
2023-12-18T15:34:27.836Z,30.60
2023-12-18T15:36:55.893Z,30.63
2023-12-18T15:39:24.832Z,30.49
2023-12-18T15:41:53.166Z,30.47
2023-12-18T15:44:22.484Z,30.40
2023-12-18T15:46:50.426Z,30.53
2023-12-18T15:49:19.284Z,30.32
2023-12-18T15:51:47.416Z,30.34
2023-12-18T15:54:15.434Z,30.56
2023-12-18T15:56:45.476Z,30.48
2023-12-18T15:59:14.838Z,30.41
2023-12-18T16:01:47.574Z,30.49
2023-12-18T16:04:16.101Z,30.41
2023-12-18T16:06:44.463Z,30.83
2023-12-18T16:09:12.822Z,30.69
2023-12-18T16:11:41.626Z,30.90
2023-12-18T16:14:10.784Z,31.02
2023-12-18T16:16:38.735Z,31.04
2023-12-18T16:19:08.367Z,30.98
2023-12-18T16:21:36.318Z,30.90
2023-12-18T16:24:04.249Z,31.16
2023-12-18T16:26:35.806Z,30.81
2023-12-18T16:29:06.242Z,31.05
2023-12-18T16:31:34.357Z,30.95
2023-12-18T16:34:02.858Z,30.96
2023-12-18T16:36:32.429Z,30.73
2023-12-18T16:39:00.441Z,30.78
2023-12-18T16:41:31.905Z,30.79
2023-12-18T16:44:00.048Z,30.92
2023-12-18T16:46:37.324Z,30.83
2023-12-18T16:49:11.422Z,30.90
2023-12-18T16:51:41.105Z,30.67
2023-12-18T16:54:09.089Z,30.70
2023-12-18T16:56:37.908Z,30.57
2023-12-18T16:59:06.244Z,30.64
2023-12-18T17:01:34.243Z,30.57
2023-12-18T17:04:02.481Z,30.57
2023-12-18T17:06:30.556Z,30.42
2023-12-18T17:08:59.990Z,30.55
2023-12-18T17:11:27.859Z,30.30
2023-12-18T17:13:55.794Z,30.29
2023-12-18T17:16:23.787Z,30.31
2023-12-18T17:18:52.106Z,30.38
2023-12-18T17:21:20.576Z,30.18
2023-12-18T17:23:48.671Z,30.25
2023-12-18T17:26:17.964Z,30.24
2023-12-18T17:28:45.922Z,30.26
2023-12-18T17:31:13.910Z,30.46
2023-12-18T17:33:42.042Z,30.57
2023-12-18T17:36:10.032Z,30.45
2023-12-18T17:38:37.932Z,30.59
2023-12-18T17:41:06.002Z,30.60
2023-12-18T17:43:35.565Z,30.71
2023-12-18T17:46:03.563Z,30.82
2023-12-18T17:48:31.799Z,30.82
2023-12-18T17:51:01.749Z,30.92
2023-12-18T17:53:29.742Z,30.92
2023-12-18T17:55:57.688Z,30.80
2023-12-18T17:58:25.724Z,30.93
2023-12-18T18:00:55.124Z,30.98
2023-12-18T18:03:23.139Z,30.92
2023-12-18T18:05:51.200Z,30.97
2023-12-18T18:08:19.175Z,30.94
2023-12-18T18:10:47.940Z,30.90
2023-12-18T18:13:16.086Z,30.88
2023-12-18T18:15:44.558Z,30.83
2023-12-18T18:18:14.141Z,30.77
2023-12-18T18:20:42.206Z,30.82
2023-12-18T18:23:10.156Z,30.71
2023-12-18T18:25:40.154Z,30.78
2023-12-18T18:28:09.061Z,30.51
2023-12-18T18:30:37.384Z,30.54
2023-12-18T18:33:07.792Z,30.22
2023-12-18T18:35:38.825Z,30.43
2023-12-18T18:38:06.692Z,30.48
2023-12-18T18:40:34.625Z,30.27
2023-12-18T18:43:02.518Z,30.25
2023-12-18T18:45:30.479Z,30.27
2023-12-18T18:47:58.509Z,30.26
2023-12-18T18:50:26.825Z,30.32
2023-12-18T18:52:56.136Z,30.29
2023-12-18T18:55:24.071Z,30.28
2023-12-18T18:57:52.138Z,30.33
2023-12-18T19:00:20.457Z,30.17
2023-12-18T19:02:48.396Z,30.23
2023-12-18T19:05:17.589Z,30.15
2023-12-18T19:07:47.512Z,30.10
2023-12-18T19:10:17.079Z,30.19
2023-12-18T19:12:45.438Z,30.39
2023-12-18T19:15:13.810Z,30.13
2023-12-18T19:17:43.351Z,30.47
2023-12-18T19:20:11.955Z,30.29
2023-12-18T19:22:41.407Z,30.17
2023-12-18T19:25:09.577Z,30.17
2023-12-18T19:27:40.049Z,30.38
2023-12-18T19:30:09.353Z,30.34
2023-12-18T19:32:37.330Z,30.42
2023-12-18T19:35:06.389Z,30.29
2023-12-18T19:37:34.377Z,30.50
2023-12-18T19:40:02.760Z,30.47
2023-12-18T19:42:30.816Z,30.51
2023-12-18T19:45:00.154Z,30.60
2023-12-18T19:47:28.201Z,30.45
2023-12-18T19:49:56.350Z,30.39
2023-12-18T19:52:24.342Z,30.43
2023-12-18T19:54:52.438Z,30.37
2023-12-18T19:57:20.528Z,30.54
2023-12-18T19:59:49.387Z,30.48
2023-12-18T20:02:18.844Z,30.54
2023-12-18T20:04:46.877Z,30.40
2023-12-18T20:07:14.837Z,30.42
2023-12-18T20:09:43.686Z,30.56
2023-12-18T20:12:11.830Z,30.52
2023-12-18T20:14:40.276Z,30.35
2023-12-18T20:17:08.265Z,30.52
2023-12-18T20:19:37.955Z,30.30
2023-12-18T20:22:06.140Z,30.34
2023-12-18T20:24:34.803Z,30.48
2023-12-18T20:27:03.015Z,30.44
2023-12-18T20:29:33.737Z,30.61
2023-12-18T20:32:03.238Z,30.72
2023-12-18T20:34:31.344Z,30.58
2023-12-18T20:37:00.878Z,30.57
2023-12-18T20:39:28.938Z,30.63
2023-12-18T20:41:57.071Z,30.49
2023-12-18T20:44:24.949Z,30.50
2023-12-18T20:46:52.991Z,30.44
2023-12-18T20:49:21.061Z,30.52
2023-12-18T20:51:49.191Z,30.47
2023-12-18T20:54:18.518Z,30.60
2023-12-18T20:56:46.486Z,30.70
2023-12-18T20:59:14.392Z,30.51
2023-12-18T21:01:42.462Z,30.40
2023-12-18T21:04:10.567Z,30.52
2023-12-18T21:06:38.807Z,30.53
2023-12-18T21:09:06.972Z,30.54
2023-12-18T21:11:36.764Z,30.52
2023-12-18T21:14:04.664Z,30.33
2023-12-18T21:16:32.620Z,30.57
2023-12-18T21:19:01.316Z,30.64
2023-12-18T21:21:29.393Z,30.58
2023-12-18T21:23:57.275Z,30.55
2023-12-18T21:26:25.188Z,30.68
2023-12-18T21:28:55.055Z,30.69
2023-12-18T21:31:23.016Z,30.61
2023-12-18T21:33:51.059Z,30.70
2023-12-18T21:36:20.290Z,30.68
2023-12-18T21:38:48.297Z,30.65
2023-12-18T21:41:16.222Z,30.88
2023-12-18T21:43:45.298Z,30.88
2023-12-18T21:46:16.664Z,30.84
2023-12-18T21:48:44.839Z,30.72
2023-12-18T21:51:14.037Z,30.77
2023-12-18T21:53:42.012Z,30.99
2023-12-18T21:56:12.503Z,31.03
2023-12-18T21:58:41.488Z,31.16
2023-12-18T22:01:09.463Z,30.89
2023-12-18T22:03:38.851Z,31.00
2023-12-18T22:06:07.208Z,30.96
2023-12-18T22:08:35.146Z,31.03
2023-12-18T22:11:03.032Z,31.11
2023-12-18T22:13:31.313Z,31.50
2023-12-18T22:15:59.268Z,31.21
2023-12-18T22:18:27.473Z,31.31
2023-12-18T22:21:04.545Z,31.57
2023-12-18T22:23:40.155Z,31.40
2023-12-18T22:26:08.083Z,31.48
2023-12-18T22:28:35.992Z,31.68
2023-12-18T22:31:04.302Z,31.71
2023-12-18T22:33:32.389Z,31.51
2023-12-18T22:36:01.777Z,31.49
2023-12-18T22:38:29.720Z,31.76
2023-12-18T22:40:57.923Z,31.59
2023-12-18T22:43:26.030Z,31.77
2023-12-18T22:45:54.139Z,32.02
2023-12-18T22:48:23.482Z,31.77
2023-12-18T22:50:51.510Z,31.95
2023-12-18T22:53:22.183Z,31.78
2023-12-18T22:55:51.608Z,32.03
2023-12-18T22:58:19.545Z,32.15
2023-12-18T23:00:47.567Z,32.05
2023-12-18T23:03:15.485Z,32.07
2023-12-18T23:05:43.449Z,32.27
2023-12-18T23:08:11.396Z,32.30
2023-12-18T23:10:40.726Z,32.14
2023-12-18T23:13:08.820Z,32.20
2023-12-18T23:15:36.837Z,32.48
2023-12-18T23:18:05.381Z,32.34
2023-12-18T23:20:36.185Z,32.39
2023-12-18T23:23:04.363Z,32.70
2023-12-18T23:25:32.396Z,32.72
2023-12-18T23:28:02.048Z,32.30
2023-12-18T23:30:30.063Z,32.74
2023-12-18T23:32:58.501Z,32.55
2023-12-18T23:35:26.472Z,32.64
2023-12-18T23:37:54.410Z,32.46
2023-12-18T23:40:22.440Z,32.86
2023-12-18T23:42:50.323Z,32.63
2023-12-18T23:45:19.631Z,32.63
2023-12-18T23:47:48.996Z,32.60
2023-12-18T23:50:17.861Z,32.65
2023-12-18T23:52:46.403Z,32.66
2023-12-18T23:55:14.741Z,32.87
2023-12-18T23:57:43.495Z,33.00
